sensor_id;sensor_type;location;lat;lon;timestamp;P1;durP1;ratioP1;P2;durP2;ratioP2
39098;SDS011;24844;52.380;7.018;2023-07-29T00:05:41;13.75;;;12.10;;
39098;SDS011;24844;52.380;7.018;2023-07-29T00:08:07;16.27;;;12.90;;
39098;SDS011;24844;52.380;7.018;2023-07-29T00:10:55;14.48;;;11.75;;
39098;SDS011;24844;52.380;7.018;2023-07-29T00:13:23;14.73;;;11.68;;
39098;SDS011;24844;52.380;7.018;2023-07-29T00:15:54;15.27;;;11.95;;
39098;SDS011;24844;52.380;7.018;2023-07-29T00:18:32;16.98;;;12.77;;
39098;SDS011;24844;52.380;7.018;2023-07-29T00:21:00;14.20;;;12.20;;
39098;SDS011;24844;52.380;7.018;2023-07-29T00:23:56;14.20;;;11.27;;
39098;SDS011;24844;52.380;7.018;2023-07-29T00:26:22;17.42;;;12.43;;
39098;SDS011;24844;52.380;7.018;2023-07-29T00:28:54;12.93;;;11.40;;
39098;SDS011;24844;52.380;7.018;2023-07-29T00:31:23;15.02;;;11.68;;
39098;SDS011;24844;52.380;7.018;2023-07-29T00:33:49;15.13;;;11.50;;
39098;SDS011;24844;52.380;7.018;2023-07-29T00:36:25;13.23;;;11.75;;
39098;SDS011;24844;52.380;7.018;2023-07-29T00:38:51;14.40;;;11.52;;
39098;SDS011;24844;52.380;7.018;2023-07-29T00:41:19;13.50;;;10.87;;
39098;SDS011;24844;52.380;7.018;2023-07-29T00:43:47;16.13;;;10.95;;
39098;SDS011;24844;52.380;7.018;2023-07-29T00:46:18;14.70;;;10.63;;
39098;SDS011;24844;52.380;7.018;2023-07-29T00:49:19;12.57;;;9.63;;
39098;SDS011;24844;52.380;7.018;2023-07-29T00:52:11;12.32;;;10.40;;
39098;SDS011;24844;52.380;7.018;2023-07-29T00:54:46;11.98;;;9.63;;
39098;SDS011;24844;52.380;7.018;2023-07-29T00:57:22;11.93;;;9.63;;
39098;SDS011;24844;52.380;7.018;2023-07-29T00:59:54;12.00;;;9.98;;
39098;SDS011;24844;52.380;7.018;2023-07-29T01:02:42;12.07;;;10.13;;
39098;SDS011;24844;52.380;7.018;2023-07-29T01:05:25;11.80;;;9.45;;
39098;SDS011;24844;52.380;7.018;2023-07-29T01:08:23;11.77;;;9.98;;
39098;SDS011;24844;52.380;7.018;2023-07-29T01:11:26;13.48;;;9.82;;
39098;SDS011;24844;52.380;7.018;2023-07-29T01:17:09;11.88;;;10.05;;
39098;SDS011;24844;52.380;7.018;2023-07-29T01:20:02;13.18;;;11.65;;
39098;SDS011;24844;52.380;7.018;2023-07-29T01:22:37;13.80;;;11.40;;
39098;SDS011;24844;52.380;7.018;2023-07-29T01:25:05;12.77;;;10.93;;
39098;SDS011;24844;52.380;7.018;2023-07-29T01:27:37;15.23;;;11.20;;
39098;SDS011;24844;52.380;7.018;2023-07-29T01:30:06;12.88;;;10.77;;
39098;SDS011;24844;52.380;7.018;2023-07-29T01:38:27;15.52;;;11.65;;
39098;SDS011;24844;52.380;7.018;2023-07-29T01:41:07;17.65;;;11.98;;
39098;SDS011;24844;52.380;7.018;2023-07-29T01:43:33;17.00;;;13.30;;
39098;SDS011;24844;52.380;7.018;2023-07-29T01:46:04;18.85;;;12.52;;
39098;SDS011;24844;52.380;7.018;2023-07-29T01:48:30;19.88;;;13.63;;
39098;SDS011;24844;52.380;7.018;2023-07-29T01:51:00;17.48;;;12.00;;
39098;SDS011;24844;52.380;7.018;2023-07-29T01:53:25;15.25;;;10.45;;
39098;SDS011;24844;52.380;7.018;2023-07-29T01:55:53;19.57;;;11.93;;
39098;SDS011;24844;52.380;7.018;2023-07-29T01:58:25;18.95;;;12.45;;
39098;SDS011;24844;52.380;7.018;2023-07-29T02:00:53;16.88;;;12.30;;
39098;SDS011;24844;52.380;7.018;2023-07-29T02:03:21;16.67;;;12.20;;
39098;SDS011;24844;52.380;7.018;2023-07-29T02:05:56;17.77;;;12.05;;
39098;SDS011;24844;52.380;7.018;2023-07-29T02:08:21;11.27;;;10.05;;
39098;SDS011;24844;52.380;7.018;2023-07-29T02:10:58;17.25;;;11.38;;
39098;SDS011;24844;52.380;7.018;2023-07-29T02:13:32;11.88;;;9.10;;
39098;SDS011;24844;52.380;7.018;2023-07-29T02:16:01;16.13;;;11.95;;
39098;SDS011;24844;52.380;7.018;2023-07-29T02:18:29;13.10;;;11.50;;
39098;SDS011;24844;52.380;7.018;2023-07-29T02:21:00;13.80;;;10.55;;
39098;SDS011;24844;52.380;7.018;2023-07-29T02:23:25;13.75;;;10.48;;
39098;SDS011;24844;52.380;7.018;2023-07-29T02:25:59;11.80;;;9.68;;
39098;SDS011;24844;52.380;7.018;2023-07-29T02:28:33;17.27;;;11.40;;
39098;SDS011;24844;52.380;7.018;2023-07-29T02:33:50;15.15;;;11.40;;
39098;SDS011;24844;52.380;7.018;2023-07-29T02:36:24;14.63;;;10.80;;
39098;SDS011;24844;52.380;7.018;2023-07-29T02:38:50;16.83;;;10.98;;
39098;SDS011;24844;52.380;7.018;2023-07-29T02:41:20;13.35;;;10.70;;
39098;SDS011;24844;52.380;7.018;2023-07-29T02:44:01;16.25;;;11.35;;
39098;SDS011;24844;52.380;7.018;2023-07-29T02:46:27;18.10;;;12.73;;
39098;SDS011;24844;52.380;7.018;2023-07-29T02:48:53;12.63;;;10.77;;
39098;SDS011;24844;52.380;7.018;2023-07-29T02:51:22;16.10;;;12.13;;
39098;SDS011;24844;52.380;7.018;2023-07-29T02:56:18;15.48;;;11.57;;
39098;SDS011;24844;52.380;7.018;2023-07-29T02:58:44;15.05;;;11.15;;
39098;SDS011;24844;52.380;7.018;2023-07-29T03:01:10;16.60;;;11.57;;
39098;SDS011;24844;52.380;7.018;2023-07-29T03:03:36;17.80;;;12.55;;
39098;SDS011;24844;52.380;7.018;2023-07-29T03:08:49;17.23;;;13.18;;
39098;SDS011;24844;52.380;7.018;2023-07-29T03:11:22;17.77;;;12.93;;
39098;SDS011;24844;52.380;7.018;2023-07-29T03:13:48;15.63;;;11.85;;
39098;SDS011;24844;52.380;7.018;2023-07-29T03:16:19;16.23;;;12.20;;
39098;SDS011;24844;52.380;7.018;2023-07-29T03:18:48;20.10;;;13.32;;
39098;SDS011;24844;52.380;7.018;2023-07-29T03:21:32;17.77;;;13.07;;
39098;SDS011;24844;52.380;7.018;2023-07-29T03:23:57;18.83;;;12.75;;
39098;SDS011;24844;52.380;7.018;2023-07-29T03:26:23;17.55;;;12.85;;
39098;SDS011;24844;52.380;7.018;2023-07-29T03:28:49;19.67;;;13.85;;
39098;SDS011;24844;52.380;7.018;2023-07-29T03:31:15;15.43;;;12.27;;
39098;SDS011;24844;52.380;7.018;2023-07-29T03:33:48;19.50;;;14.93;;
39098;SDS011;24844;52.380;7.018;2023-07-29T03:36:39;18.00;;;12.68;;
39098;SDS011;24844;52.380;7.018;2023-07-29T03:39:05;18.52;;;14.00;;
39098;SDS011;24844;52.380;7.018;2023-07-29T03:41:39;18.58;;;13.88;;
39098;SDS011;24844;52.380;7.018;2023-07-29T03:44:05;14.70;;;11.77;;
39098;SDS011;24844;52.380;7.018;2023-07-29T03:46:31;14.93;;;12.85;;
39098;SDS011;24844;52.380;7.018;2023-07-29T03:48:56;16.95;;;13.73;;
39098;SDS011;24844;52.380;7.018;2023-07-29T03:51:24;15.80;;;13.00;;
39098;SDS011;24844;52.380;7.018;2023-07-29T03:53:50;15.98;;;12.18;;
39098;SDS011;24844;52.380;7.018;2023-07-29T03:58:45;13.68;;;10.80;;
39098;SDS011;24844;52.380;7.018;2023-07-29T04:01:19;15.45;;;11.02;;
39098;SDS011;24844;52.380;7.018;2023-07-29T04:03:45;15.15;;;10.77;;
39098;SDS011;24844;52.380;7.018;2023-07-29T04:06:14;12.80;;;10.02;;
39098;SDS011;24844;52.380;7.018;2023-07-29T04:08:42;11.57;;;9.63;;
39098;SDS011;24844;52.380;7.018;2023-07-29T04:11:08;13.25;;;11.00;;
39098;SDS011;24844;52.380;7.018;2023-07-29T04:13:45;13.13;;;10.30;;
39098;SDS011;24844;52.380;7.018;2023-07-29T04:16:14;12.13;;;10.50;;
39098;SDS011;24844;52.380;7.018;2023-07-29T04:18:42;11.18;;;9.90;;
39098;SDS011;24844;52.380;7.018;2023-07-29T04:21:18;15.68;;;11.20;;
39098;SDS011;24844;52.380;7.018;2023-07-29T04:23:44;12.75;;;11.45;;
39098;SDS011;24844;52.380;7.018;2023-07-29T04:26:15;13.30;;;10.80;;
39098;SDS011;24844;52.380;7.018;2023-07-29T04:28:41;11.18;;;9.98;;
39098;SDS011;24844;52.380;7.018;2023-07-29T04:31:08;13.27;;;10.70;;
39098;SDS011;24844;52.380;7.018;2023-07-29T04:36:02;13.68;;;10.27;;
39098;SDS011;24844;52.380;7.018;2023-07-29T04:38:30;11.95;;;9.93;;
39098;SDS011;24844;52.380;7.018;2023-07-29T04:40:59;14.07;;;11.10;;
39098;SDS011;24844;52.380;7.018;2023-07-29T04:43:35;14.23;;;11.18;;
39098;SDS011;24844;52.380;7.018;2023-07-29T04:46:00;13.85;;;10.45;;
39098;SDS011;24844;52.380;7.018;2023-07-29T04:48:26;12.98;;;10.07;;
39098;SDS011;24844;52.380;7.018;2023-07-29T04:50:52;12.65;;;10.20;;
39098;SDS011;24844;52.380;7.018;2023-07-29T04:53:18;11.35;;;8.88;;
39098;SDS011;24844;52.380;7.018;2023-07-29T04:55:46;12.50;;;9.75;;
39098;SDS011;24844;52.380;7.018;2023-07-29T04:58:12;11.80;;;9.40;;
39098;SDS011;24844;52.380;7.018;2023-07-29T05:00:41;13.57;;;10.75;;
39098;SDS011;24844;52.380;7.018;2023-07-29T05:03:07;13.85;;;9.88;;
39098;SDS011;24844;52.380;7.018;2023-07-29T05:05:38;14.27;;;9.13;;
39098;SDS011;24844;52.380;7.018;2023-07-29T05:08:12;9.13;;;7.57;;
39098;SDS011;24844;52.380;7.018;2023-07-29T05:10:41;12.35;;;9.35;;
39098;SDS011;24844;52.380;7.018;2023-07-29T05:13:07;11.25;;;8.75;;
39098;SDS011;24844;52.380;7.018;2023-07-29T05:15:32;9.88;;;7.82;;
39098;SDS011;24844;52.380;7.018;2023-07-29T05:17:58;9.02;;;8.10;;
39098;SDS011;24844;52.380;7.018;2023-07-29T05:20:24;9.13;;;7.30;;
39098;SDS011;24844;52.380;7.018;2023-07-29T05:25:18;8.35;;;7.55;;
39098;SDS011;24844;52.380;7.018;2023-07-29T05:27:44;12.30;;;8.30;;
39098;SDS011;24844;52.380;7.018;2023-07-29T05:30:09;12.23;;;7.78;;
39098;SDS011;24844;52.380;7.018;2023-07-29T05:32:36;9.15;;;7.18;;
39098;SDS011;24844;52.380;7.018;2023-07-29T05:35:04;9.68;;;6.72;;
39098;SDS011;24844;52.380;7.018;2023-07-29T05:37:35;8.27;;;6.43;;
39098;SDS011;24844;52.380;7.018;2023-07-29T05:42:33;9.35;;;6.47;;
39098;SDS011;24844;52.380;7.018;2023-07-29T05:45:05;8.70;;;5.97;;
39098;SDS011;24844;52.380;7.018;2023-07-29T05:47:37;7.13;;;5.40;;
39098;SDS011;24844;52.380;7.018;2023-07-29T05:50:06;7.50;;;6.13;;
39098;SDS011;24844;52.380;7.018;2023-07-29T05:52:35;8.88;;;6.80;;
39098;SDS011;24844;52.380;7.018;2023-07-29T05:55:01;9.60;;;6.65;;
39098;SDS011;24844;52.380;7.018;2023-07-29T05:57:27;9.30;;;6.47;;
39098;SDS011;24844;52.380;7.018;2023-07-29T05:59:55;8.15;;;6.85;;
39098;SDS011;24844;52.380;7.018;2023-07-29T06:02:21;8.68;;;7.13;;
39098;SDS011;24844;52.380;7.018;2023-07-29T06:04:52;8.20;;;6.80;;
39098;SDS011;24844;52.380;7.018;2023-07-29T06:07:18;7.32;;;6.35;;
39098;SDS011;24844;52.380;7.018;2023-07-29T06:09:44;8.50;;;6.55;;
39098;SDS011;24844;52.380;7.018;2023-07-29T06:12:12;10.75;;;7.32;;
39098;SDS011;24844;52.380;7.018;2023-07-29T06:14:38;9.18;;;7.78;;
39098;SDS011;24844;52.380;7.018;2023-07-29T06:17:03;11.00;;;6.80;;
39098;SDS011;24844;52.380;7.018;2023-07-29T06:19:32;10.25;;;7.30;;
39098;SDS011;24844;52.380;7.018;2023-07-29T06:22:03;9.50;;;7.07;;
39098;SDS011;24844;52.380;7.018;2023-07-29T06:24:37;14.23;;;6.68;;
39098;SDS011;24844;52.380;7.018;2023-07-29T06:27:03;7.97;;;6.45;;
39098;SDS011;24844;52.380;7.018;2023-07-29T06:29:38;8.55;;;7.32;;
39098;SDS011;24844;52.380;7.018;2023-07-29T06:32:11;7.80;;;5.35;;
39098;SDS011;24844;52.380;7.018;2023-07-29T06:35:01;9.52;;;8.65;;
39098;SDS011;24844;52.380;7.018;2023-07-29T06:37:27;8.85;;;5.68;;
39098;SDS011;24844;52.380;7.018;2023-07-29T06:39:58;7.13;;;4.97;;
39098;SDS011;24844;52.380;7.018;2023-07-29T06:42:29;6.22;;;5.20;;
39098;SDS011;24844;52.380;7.018;2023-07-29T06:44:57;10.25;;;9.35;;
39098;SDS011;24844;52.380;7.018;2023-07-29T06:47:37;8.27;;;7.47;;
39098;SDS011;24844;52.380;7.018;2023-07-29T06:50:24;6.57;;;5.13;;
39098;SDS011;24844;52.380;7.018;2023-07-29T06:52:56;6.55;;;5.93;;
39098;SDS011;24844;52.380;7.018;2023-07-29T06:55:25;6.47;;;5.88;;
39098;SDS011;24844;52.380;7.018;2023-07-29T06:57:50;13.35;;;12.18;;
39098;SDS011;24844;52.380;7.018;2023-07-29T07:00:42;8.02;;;5.00;;
39098;SDS011;24844;52.380;7.018;2023-07-29T07:03:08;7.25;;;6.55;;
39098;SDS011;24844;52.380;7.018;2023-07-29T07:08:32;7.57;;;6.05;;
39098;SDS011;24844;52.380;7.018;2023-07-29T07:11:01;6.43;;;5.15;;
39098;SDS011;24844;52.380;7.018;2023-07-29T07:16:07;7.53;;;4.65;;
39098;SDS011;24844;52.380;7.018;2023-07-29T07:18:55;6.60;;;3.80;;
39098;SDS011;24844;52.380;7.018;2023-07-29T07:21:23;7.20;;;6.28;;
39098;SDS011;24844;52.380;7.018;2023-07-29T07:23:50;6.32;;;3.72;;
39098;SDS011;24844;52.380;7.018;2023-07-29T07:26:32;5.53;;;3.53;;
39098;SDS011;24844;52.380;7.018;2023-07-29T07:29:24;4.47;;;3.75;;
39098;SDS011;24844;52.380;7.018;2023-07-29T07:32:04;6.55;;;3.67;;
39098;SDS011;24844;52.380;7.018;2023-07-29T07:34:30;4.20;;;3.40;;
39098;SDS011;24844;52.380;7.018;2023-07-29T07:37:14;5.50;;;4.13;;
39098;SDS011;24844;52.380;7.018;2023-07-29T07:39:39;5.53;;;4.82;;
39098;SDS011;24844;52.380;7.018;2023-07-29T07:42:21;9.15;;;8.05;;
39098;SDS011;24844;52.380;7.018;2023-07-29T07:44:47;6.85;;;6.28;;
39098;SDS011;24844;52.380;7.018;2023-07-29T07:47:15;3.83;;;3.10;;
39098;SDS011;24844;52.380;7.018;2023-07-29T07:49:41;5.22;;;2.72;;
39098;SDS011;24844;52.380;7.018;2023-07-29T07:52:07;5.90;;;5.30;;
39098;SDS011;24844;52.380;7.018;2023-07-29T07:54:32;5.13;;;3.90;;
39098;SDS011;24844;52.380;7.018;2023-07-29T07:56:58;5.53;;;3.35;;
39098;SDS011;24844;52.380;7.018;2023-07-29T07:59:24;4.32;;;3.70;;
39098;SDS011;24844;52.380;7.018;2023-07-29T08:01:49;10.88;;;7.95;;
39098;SDS011;24844;52.380;7.018;2023-07-29T08:04:17;5.15;;;4.05;;
39098;SDS011;24844;52.380;7.018;2023-07-29T08:06:42;5.82;;;5.32;;
39098;SDS011;24844;52.380;7.018;2023-07-29T08:09:08;8.13;;;3.47;;
39098;SDS011;24844;52.380;7.018;2023-07-29T08:11:34;4.13;;;3.08;;
39098;SDS011;24844;52.380;7.018;2023-07-29T08:13:59;3.67;;;2.90;;
39098;SDS011;24844;52.380;7.018;2023-07-29T08:16:25;6.95;;;6.35;;
39098;SDS011;24844;52.380;7.018;2023-07-29T08:19:03;5.03;;;4.50;;
39098;SDS011;24844;52.380;7.018;2023-07-29T08:21:38;4.95;;;3.95;;
39098;SDS011;24844;52.380;7.018;2023-07-29T08:24:08;4.10;;;3.70;;
39098;SDS011;24844;52.380;7.018;2023-07-29T08:27:16;5.75;;;4.30;;
39098;SDS011;24844;52.380;7.018;2023-07-29T08:40:05;7.85;;;7.18;;
39098;SDS011;24844;52.380;7.018;2023-07-29T09:12:49;5.22;;;4.82;;
39098;SDS011;24844;52.380;7.018;2023-07-29T09:16:03;18.33;;;17.08;;
39098;SDS011;24844;52.380;7.018;2023-07-29T09:28:39;7.60;;;7.00;;
39098;SDS011;24844;52.380;7.018;2023-07-29T09:40:15;7.18;;;6.63;;
39098;SDS011;24844;52.380;7.018;2023-07-29T09:46:02;6.38;;;5.60;;
39098;SDS011;24844;52.380;7.018;2023-07-29T09:51:42;7.65;;;7.07;;
39098;SDS011;24844;52.380;7.018;2023-07-29T09:54:07;3.55;;;3.25;;
39098;SDS011;24844;52.380;7.018;2023-07-29T09:56:35;4.03;;;3.67;;
39098;SDS011;24844;52.380;7.018;2023-07-29T09:59:06;3.85;;;3.58;;
39098;SDS011;24844;52.380;7.018;2023-07-29T10:01:32;7.78;;;7.18;;
39098;SDS011;24844;52.380;7.018;2023-07-29T10:03:59;3.33;;;3.08;;
39098;SDS011;24844;52.380;7.018;2023-07-29T10:06:26;3.38;;;2.78;;
39098;SDS011;24844;52.380;7.018;2023-07-29T10:08:53;5.18;;;4.78;;
39098;SDS011;24844;52.380;7.018;2023-07-29T10:11:20;2.95;;;2.72;;
39098;SDS011;24844;52.380;7.018;2023-07-29T10:13:47;6.53;;;6.03;;
39098;SDS011;24844;52.380;7.018;2023-07-29T10:16:13;9.20;;;8.50;;
39098;SDS011;24844;52.380;7.018;2023-07-29T10:18:39;5.30;;;4.90;;
39098;SDS011;24844;52.380;7.018;2023-07-29T10:21:06;5.88;;;5.45;;
39098;SDS011;24844;52.380;7.018;2023-07-29T10:23:37;6.53;;;5.97;;
39098;SDS011;24844;52.380;7.018;2023-07-29T10:26:08;6.53;;;5.95;;
39098;SDS011;24844;52.380;7.018;2023-07-29T10:28:39;5.63;;;5.18;;
39098;SDS011;24844;52.380;7.018;2023-07-29T10:31:06;8.55;;;7.15;;
39098;SDS011;24844;52.380;7.018;2023-07-29T10:33:32;5.38;;;4.88;;
39098;SDS011;24844;52.380;7.018;2023-07-29T10:35:59;3.47;;;2.17;;
39098;SDS011;24844;52.380;7.018;2023-07-29T10:38:25;3.25;;;2.47;;
39098;SDS011;24844;52.380;7.018;2023-07-29T10:40:55;3.80;;;3.53;;
39098;SDS011;24844;52.380;7.018;2023-07-29T10:43:24;5.15;;;4.75;;
39098;SDS011;24844;52.380;7.018;2023-07-29T10:45:50;8.50;;;7.93;;
39098;SDS011;24844;52.380;7.018;2023-07-29T10:53:52;6.13;;;5.55;;
39098;SDS011;24844;52.380;7.018;2023-07-29T10:56:30;2.92;;;1.88;;
39098;SDS011;24844;52.380;7.018;2023-07-29T10:58:58;5.38;;;4.97;;
39098;SDS011;24844;52.380;7.018;2023-07-29T11:01:52;3.88;;;2.10;;
39098;SDS011;24844;52.380;7.018;2023-07-29T11:04:28;5.50;;;4.93;;
39098;SDS011;24844;52.380;7.018;2023-07-29T11:13:01;7.75;;;7.15;;
39098;SDS011;24844;52.380;7.018;2023-07-29T11:17:46;2.45;;;1.92;;
39098;SDS011;24844;52.380;7.018;2023-07-29T11:20:12;4.82;;;3.45;;
39098;SDS011;24844;52.380;7.018;2023-07-29T11:22:39;4.03;;;2.95;;
39098;SDS011;24844;52.380;7.018;2023-07-29T11:25:07;6.85;;;6.35;;
39098;SDS011;24844;52.380;7.018;2023-07-29T11:27:34;3.60;;;3.25;;
39098;SDS011;24844;52.380;7.018;2023-07-29T11:30:01;10.13;;;9.43;;
39098;SDS011;24844;52.380;7.018;2023-07-29T11:32:30;4.45;;;3.30;;
39098;SDS011;24844;52.380;7.018;2023-07-29T11:34:56;3.10;;;2.75;;
39098;SDS011;24844;52.380;7.018;2023-07-29T11:37:22;5.03;;;4.70;;
39098;SDS011;24844;52.380;7.018;2023-07-29T11:39:48;3.28;;;2.65;;
39098;SDS011;24844;52.380;7.018;2023-07-29T11:42:14;1.70;;;1.60;;
39098;SDS011;24844;52.380;7.018;2023-07-29T11:44:40;2.95;;;2.25;;
39098;SDS011;24844;52.380;7.018;2023-07-29T11:47:09;4.35;;;2.08;;
39098;SDS011;24844;52.380;7.018;2023-07-29T11:49:40;7.30;;;6.63;;
39098;SDS011;24844;52.380;7.018;2023-07-29T11:52:06;6.82;;;6.25;;
39098;SDS011;24844;52.380;7.018;2023-07-29T11:54:44;3.42;;;1.85;;
39098;SDS011;24844;52.380;7.018;2023-07-29T11:57:35;2.55;;;2.35;;
39098;SDS011;24844;52.380;7.018;2023-07-29T12:00:09;4.15;;;2.90;;
39098;SDS011;24844;52.380;7.018;2023-07-29T12:02:51;2.25;;;2.05;;
39098;SDS011;24844;52.380;7.018;2023-07-29T12:05:17;6.40;;;5.85;;
39098;SDS011;24844;52.380;7.018;2023-07-29T12:10:52;4.80;;;4.10;;
39098;SDS011;24844;52.380;7.018;2023-07-29T12:22:59;4.15;;;3.70;;
39098;SDS011;24844;52.380;7.018;2023-07-29T12:25:44;3.97;;;3.67;;
39098;SDS011;24844;52.380;7.018;2023-07-29T12:28:15;4.67;;;4.27;;
39098;SDS011;24844;52.380;7.018;2023-07-29T12:30:41;3.80;;;3.45;;
39098;SDS011;24844;52.380;7.018;2023-07-29T12:33:36;2.67;;;2.15;;
39098;SDS011;24844;52.380;7.018;2023-07-29T12:36:57;3.13;;;2.88;;
39098;SDS011;24844;52.380;7.018;2023-07-29T12:39:59;8.43;;;7.82;;
39098;SDS011;24844;52.380;7.018;2023-07-29T12:42:33;6.95;;;6.35;;
39098;SDS011;24844;52.380;7.018;2023-07-29T12:48:28;3.58;;;3.28;;
39098;SDS011;24844;52.380;7.018;2023-07-29T12:50:53;9.95;;;9.27;;
39098;SDS011;24844;52.380;7.018;2023-07-29T12:53:37;3.38;;;3.03;;
39098;SDS011;24844;52.380;7.018;2023-07-29T12:56:19;3.45;;;2.58;;
39098;SDS011;24844;52.380;7.018;2023-07-29T12:59:08;2.97;;;2.60;;
39098;SDS011;24844;52.380;7.018;2023-07-29T13:01:34;3.10;;;2.80;;
39098;SDS011;24844;52.380;7.018;2023-07-29T13:04:00;3.47;;;2.00;;
39098;SDS011;24844;52.380;7.018;2023-07-29T13:06:31;3.50;;;1.90;;
39098;SDS011;24844;52.380;7.018;2023-07-29T13:08:59;8.07;;;7.38;;
39098;SDS011;24844;52.380;7.018;2023-07-29T13:11:25;4.75;;;4.35;;
39098;SDS011;24844;52.380;7.018;2023-07-29T13:13:54;5.93;;;5.53;;
39098;SDS011;24844;52.380;7.018;2023-07-29T13:16:20;7.03;;;6.30;;
39098;SDS011;24844;52.380;7.018;2023-07-29T13:18:49;3.97;;;3.63;;
39098;SDS011;24844;52.380;7.018;2023-07-29T13:21:15;2.42;;;1.83;;
39098;SDS011;24844;52.380;7.018;2023-07-29T13:23:43;6.07;;;5.45;;
39098;SDS011;24844;52.380;7.018;2023-07-29T13:26:09;2.50;;;1.90;;
39098;SDS011;24844;52.380;7.018;2023-07-29T13:28:36;3.75;;;2.58;;
39098;SDS011;24844;52.380;7.018;2023-07-29T13:31:01;3.00;;;1.73;;
39098;SDS011;24844;52.380;7.018;2023-07-29T13:33:28;5.85;;;5.35;;
39098;SDS011;24844;52.380;7.018;2023-07-29T13:35:58;1.98;;;1.70;;
39098;SDS011;24844;52.380;7.018;2023-07-29T13:38:28;3.25;;;2.58;;
39098;SDS011;24844;52.380;7.018;2023-07-29T13:40:54;5.07;;;3.83;;
39098;SDS011;24844;52.380;7.018;2023-07-29T13:43:20;4.32;;;2.30;;
39098;SDS011;24844;52.380;7.018;2023-07-29T13:45:45;4.53;;;2.50;;
39098;SDS011;24844;52.380;7.018;2023-07-29T13:48:13;3.33;;;2.20;;
39098;SDS011;24844;52.380;7.018;2023-07-29T13:50:39;3.60;;;2.78;;
39098;SDS011;24844;52.380;7.018;2023-07-29T13:53:06;6.75;;;6.25;;
39098;SDS011;24844;52.380;7.018;2023-07-29T13:55:32;4.35;;;3.33;;
39098;SDS011;24844;52.380;7.018;2023-07-29T13:57:57;6.15;;;5.65;;
39098;SDS011;24844;52.380;7.018;2023-07-29T14:00:23;3.30;;;2.97;;
39098;SDS011;24844;52.380;7.018;2023-07-29T14:02:49;3.22;;;2.92;;
39098;SDS011;24844;52.380;7.018;2023-07-29T14:05:14;10.90;;;10.00;;
39098;SDS011;24844;52.380;7.018;2023-07-29T14:07:40;6.03;;;5.63;;
39098;SDS011;24844;52.380;7.018;2023-07-29T14:10:06;9.90;;;9.20;;
39098;SDS011;24844;52.380;7.018;2023-07-29T14:12:32;5.68;;;5.28;;
39098;SDS011;24844;52.380;7.018;2023-07-29T14:14:57;6.13;;;5.72;;
39098;SDS011;24844;52.380;7.018;2023-07-29T14:17:23;4.75;;;4.50;;
39098;SDS011;24844;52.380;7.018;2023-07-29T14:19:52;7.95;;;7.45;;
39098;SDS011;24844;52.380;7.018;2023-07-29T14:22:17;2.10;;;1.92;;
39098;SDS011;24844;52.380;7.018;2023-07-29T14:24:43;2.75;;;2.55;;
39098;SDS011;24844;52.380;7.018;2023-07-29T14:27:12;3.35;;;3.15;;
39098;SDS011;24844;52.380;7.018;2023-07-29T14:29:39;3.47;;;3.28;;
39098;SDS011;24844;52.380;7.018;2023-07-29T14:32:04;3.20;;;2.67;;
39098;SDS011;24844;52.380;7.018;2023-07-29T14:34:30;1.20;;;1.20;;
39098;SDS011;24844;52.380;7.018;2023-07-29T14:36:56;1.25;;;1.15;;
39098;SDS011;24844;52.380;7.018;2023-07-29T14:39:24;1.15;;;1.15;;
39098;SDS011;24844;52.380;7.018;2023-07-29T14:41:49;1.38;;;1.27;;
39098;SDS011;24844;52.380;7.018;2023-07-29T14:44:15;4.35;;;4.05;;
39098;SDS011;24844;52.380;7.018;2023-07-29T14:46:41;3.70;;;3.42;;
39098;SDS011;24844;52.380;7.018;2023-07-29T14:49:06;2.70;;;2.53;;
39098;SDS011;24844;52.380;7.018;2023-07-29T14:51:35;4.00;;;3.70;;
39098;SDS011;24844;52.380;7.018;2023-07-29T14:54:53;1.63;;;1.52;;
39098;SDS011;24844;52.380;7.018;2023-07-29T14:57:38;1.50;;;1.40;;
39098;SDS011;24844;52.380;7.018;2023-07-29T15:00:06;2.40;;;1.90;;
39098;SDS011;24844;52.380;7.018;2023-07-29T15:02:41;2.17;;;2.08;;
39098;SDS011;24844;52.380;7.018;2023-07-29T15:05:42;1.55;;;1.45;;
39098;SDS011;24844;52.380;7.018;2023-07-29T15:08:22;1.45;;;1.17;;
39098;SDS011;24844;52.380;7.018;2023-07-29T15:11:10;1.15;;;1.05;;
39098;SDS011;24844;52.380;7.018;2023-07-29T15:13:47;6.57;;;6.18;;
39098;SDS011;24844;52.380;7.018;2023-07-29T15:16:30;4.32;;;4.03;;
39098;SDS011;24844;52.380;7.018;2023-07-29T15:19:04;2.28;;;1.17;;
39098;SDS011;24844;52.380;7.018;2023-07-29T15:21:52;4.25;;;4.05;;
39098;SDS011;24844;52.380;7.018;2023-07-29T15:24:18;4.80;;;2.65;;
39098;SDS011;24844;52.380;7.018;2023-07-29T15:29:50;3.63;;;2.72;;
39098;SDS011;24844;52.380;7.018;2023-07-29T15:36:12;1.73;;;1.13;;
39098;SDS011;24844;52.380;7.018;2023-07-29T15:38:40;4.43;;;4.05;;
39098;SDS011;24844;52.380;7.018;2023-07-29T15:47:50;3.40;;;1.13;;
39098;SDS011;24844;52.380;7.018;2023-07-29T15:53:16;1.20;;;1.10;;
39098;SDS011;24844;52.380;7.018;2023-07-29T15:56:25;5.97;;;5.57;;
39098;SDS011;24844;52.380;7.018;2023-07-29T16:06:24;3.03;;;2.45;;
39098;SDS011;24844;52.380;7.018;2023-07-29T16:08:58;3.38;;;3.17;;
39098;SDS011;24844;52.380;7.018;2023-07-29T16:21:18;2.67;;;1.60;;
39098;SDS011;24844;52.380;7.018;2023-07-29T16:26:46;2.80;;;2.65;;
39098;SDS011;24844;52.380;7.018;2023-07-29T16:29:27;1.98;;;1.52;;
39098;SDS011;24844;52.380;7.018;2023-07-29T16:32:04;2.80;;;1.92;;
39098;SDS011;24844;52.380;7.018;2023-07-29T16:36:58;0.80;;;0.75;;
39098;SDS011;24844;52.380;7.018;2023-07-29T16:42:51;1.20;;;1.00;;
39098;SDS011;24844;52.380;7.018;2023-07-29T16:45:26;1.02;;;0.90;;
39098;SDS011;24844;52.380;7.018;2023-07-29T16:51:29;2.20;;;2.00;;
39098;SDS011;24844;52.380;7.018;2023-07-29T16:54:06;1.98;;;1.20;;
39098;SDS011;24844;52.380;7.018;2023-07-29T16:56:32;3.45;;;3.22;;
39098;SDS011;24844;52.380;7.018;2023-07-29T16:59:03;1.50;;;1.13;;
39098;SDS011;24844;52.380;7.018;2023-07-29T17:04:33;2.10;;;1.55;;
39098;SDS011;24844;52.380;7.018;2023-07-29T17:07:22;2.15;;;1.20;;
39098;SDS011;24844;52.380;7.018;2023-07-29T17:10:34;3.08;;;2.22;;
39098;SDS011;24844;52.380;7.018;2023-07-29T17:13:08;4.97;;;3.60;;
39098;SDS011;24844;52.380;7.018;2023-07-29T17:15:36;9.52;;;8.88;;
39098;SDS011;24844;52.380;7.018;2023-07-29T17:18:17;1.83;;;1.73;;
39098;SDS011;24844;52.380;7.018;2023-07-29T17:20:52;3.30;;;3.00;;
39098;SDS011;24844;52.380;7.018;2023-07-29T17:23:32;2.47;;;1.20;;
39098;SDS011;24844;52.380;7.018;2023-07-29T17:26:09;1.38;;;1.15;;
39098;SDS011;24844;52.380;7.018;2023-07-29T17:28:48;1.40;;;1.13;;
39098;SDS011;24844;52.380;7.018;2023-07-29T17:31:28;2.53;;;1.35;;
39098;SDS011;24844;52.380;7.018;2023-07-29T17:34:08;2.55;;;2.35;;
39098;SDS011;24844;52.380;7.018;2023-07-29T17:36:39;3.65;;;3.38;;
39098;SDS011;24844;52.380;7.018;2023-07-29T17:39:05;1.73;;;1.55;;
39098;SDS011;24844;52.380;7.018;2023-07-29T17:41:33;2.08;;;1.70;;
39098;SDS011;24844;52.380;7.018;2023-07-29T17:44:16;8.68;;;7.15;;
39098;SDS011;24844;52.380;7.018;2023-07-29T17:46:43;8.65;;;3.85;;
39098;SDS011;24844;52.380;7.018;2023-07-29T17:49:30;4.18;;;3.85;;
39098;SDS011;24844;52.380;7.018;2023-07-29T17:55:31;2.60;;;1.40;;
39098;SDS011;24844;52.380;7.018;2023-07-29T18:01:33;1.70;;;1.50;;
39098;SDS011;24844;52.380;7.018;2023-07-29T18:04:36;2.15;;;1.52;;
39098;SDS011;24844;52.380;7.018;2023-07-29T18:07:17;2.60;;;1.17;;
39098;SDS011;24844;52.380;7.018;2023-07-29T18:09:58;3.70;;;3.50;;
39098;SDS011;24844;52.380;7.018;2023-07-29T18:13:04;1.40;;;1.30;;
39098;SDS011;24844;52.380;7.018;2023-07-29T18:15:35;2.67;;;1.13;;
39098;SDS011;24844;52.380;7.018;2023-07-29T18:18:00;1.63;;;1.52;;